sensor_id;sensor_type;location;lat;lon;timestamp;P1;durP1;ratioP1;P2;durP2;ratioP2
15063;SDS011;7631;52.088;5.088;2023-05-07T00:00:18;6.00;;;5.40;;
15063;SDS011;7631;52.088;5.088;2023-05-07T00:02:47;6.20;;;5.60;;
15063;SDS011;7631;52.088;5.088;2023-05-07T00:05:12;7.20;;;6.00;;
15063;SDS011;7631;52.088;5.088;2023-05-07T00:07:37;6.20;;;5.60;;
15063;SDS011;7631;52.088;5.088;2023-05-07T00:10:03;7.10;;;5.80;;
15063;SDS011;7631;52.088;5.088;2023-05-07T00:12:28;6.40;;;5.70;;
15063;SDS011;7631;52.088;5.088;2023-05-07T00:14:56;5.73;;;5.20;;
15063;SDS011;7631;52.088;5.088;2023-05-07T00:17:21;6.60;;;6.00;;
15063;SDS011;7631;52.088;5.088;2023-05-07T00:19:46;6.13;;;5.53;;
15063;SDS011;7631;52.088;5.088;2023-05-07T00:22:12;6.40;;;5.80;;
15063;SDS011;7631;52.088;5.088;2023-05-07T00:24:37;6.67;;;6.00;;
15063;SDS011;7631;52.088;5.088;2023-05-07T00:27:03;6.20;;;5.60;;
15063;SDS011;7631;52.088;5.088;2023-05-07T00:29:28;7.53;;;5.87;;
15063;SDS011;7631;52.088;5.088;2023-05-07T00:31:53;6.47;;;5.87;;
15063;SDS011;7631;52.088;5.088;2023-05-07T00:34:19;6.60;;;5.90;;
15063;SDS011;7631;52.088;5.088;2023-05-07T00:36:45;6.43;;;5.87;;
15063;SDS011;7631;52.088;5.088;2023-05-07T00:39:10;6.40;;;5.80;;
15063;SDS011;7631;52.088;5.088;2023-05-07T00:41:36;6.90;;;6.20;;
15063;SDS011;7631;52.088;5.088;2023-05-07T00:44:01;5.33;;;4.83;;
15063;SDS011;7631;52.088;5.088;2023-05-07T00:46:27;5.63;;;5.13;;
15063;SDS011;7631;52.088;5.088;2023-05-07T00:48:53;5.73;;;5.13;;
15063;SDS011;7631;52.088;5.088;2023-05-07T00:51:18;6.00;;;5.40;;
15063;SDS011;7631;52.088;5.088;2023-05-07T00:53:43;5.63;;;5.03;;
15063;SDS011;7631;52.088;5.088;2023-05-07T00:56:09;5.30;;;4.80;;
15063;SDS011;7631;52.088;5.088;2023-05-07T00:58:35;5.77;;;5.27;;
15063;SDS011;7631;52.088;5.088;2023-05-07T01:01:00;5.30;;;4.80;;
15063;SDS011;7631;52.088;5.088;2023-05-07T01:03:25;5.17;;;4.77;;
15063;SDS011;7631;52.088;5.088;2023-05-07T01:05:50;5.73;;;5.23;;
15063;SDS011;7631;52.088;5.088;2023-05-07T01:08:17;5.80;;;4.73;;
15063;SDS011;7631;52.088;5.088;2023-05-07T01:10:43;4.97;;;4.47;;
15063;SDS011;7631;52.088;5.088;2023-05-07T01:13:09;4.70;;;4.30;;
15063;SDS011;7631;52.088;5.088;2023-05-07T01:15:35;5.37;;;4.83;;
15063;SDS011;7631;52.088;5.088;2023-05-07T01:18:00;4.40;;;4.00;;
15063;SDS011;7631;52.088;5.088;2023-05-07T01:20:26;4.90;;;4.50;;
15063;SDS011;7631;52.088;5.088;2023-05-07T01:22:52;5.20;;;4.70;;
15063;SDS011;7631;52.088;5.088;2023-05-07T01:25:18;5.10;;;4.57;;
15063;SDS011;7631;52.088;5.088;2023-05-07T01:27:43;5.13;;;4.63;;
15063;SDS011;7631;52.088;5.088;2023-05-07T01:30:08;5.83;;;4.50;;
15063;SDS011;7631;52.088;5.088;2023-05-07T01:32:41;5.20;;;4.70;;
15063;SDS011;7631;52.088;5.088;2023-05-07T01:35:12;4.53;;;4.13;;
15063;SDS011;7631;52.088;5.088;2023-05-07T01:37:39;4.80;;;4.40;;
15063;SDS011;7631;52.088;5.088;2023-05-07T01:40:04;4.27;;;3.87;;
15063;SDS011;7631;52.088;5.088;2023-05-07T01:42:30;4.07;;;3.67;;
15063;SDS011;7631;52.088;5.088;2023-05-07T01:44:55;4.40;;;4.00;;
15063;SDS011;7631;52.088;5.088;2023-05-07T01:47:21;4.43;;;4.03;;
15063;SDS011;7631;52.088;5.088;2023-05-07T01:49:46;4.50;;;4.10;;
15063;SDS011;7631;52.088;5.088;2023-05-07T01:52:11;4.77;;;4.37;;
15063;SDS011;7631;52.088;5.088;2023-05-07T01:54:37;4.60;;;4.20;;
15063;SDS011;7631;52.088;5.088;2023-05-07T01:57:02;4.57;;;4.17;;
15063;SDS011;7631;52.088;5.088;2023-05-07T01:59:27;4.57;;;3.93;;
15063;SDS011;7631;52.088;5.088;2023-05-07T02:01:52;4.30;;;3.90;;
15063;SDS011;7631;52.088;5.088;2023-05-07T02:04:18;4.33;;;3.93;;
15063;SDS011;7631;52.088;5.088;2023-05-07T02:06:43;4.03;;;3.63;;
15063;SDS011;7631;52.088;5.088;2023-05-07T02:09:08;4.00;;;3.43;;
15063;SDS011;7631;52.088;5.088;2023-05-07T02:11:36;4.00;;;3.70;;
15063;SDS011;7631;52.088;5.088;2023-05-07T02:14:01;3.80;;;3.50;;
15063;SDS011;7631;52.088;5.088;2023-05-07T02:16:27;4.00;;;3.70;;
15063;SDS011;7631;52.088;5.088;2023-05-07T02:18:52;4.23;;;3.83;;
15063;SDS011;7631;52.088;5.088;2023-05-07T02:21:17;4.03;;;3.63;;
15063;SDS011;7631;52.088;5.088;2023-05-07T02:23:42;3.67;;;3.30;;
15063;SDS011;7631;52.088;5.088;2023-05-07T02:26:08;3.80;;;3.43;;
15063;SDS011;7631;52.088;5.088;2023-05-07T02:28:33;3.93;;;3.53;;
15063;SDS011;7631;52.088;5.088;2023-05-07T02:31:01;3.47;;;3.17;;
15063;SDS011;7631;52.088;5.088;2023-05-07T02:33:27;3.70;;;3.40;;
15063;SDS011;7631;52.088;5.088;2023-05-07T02:35:52;3.60;;;3.27;;
15063;SDS011;7631;52.088;5.088;2023-05-07T02:38:17;3.90;;;3.60;;
15063;SDS011;7631;52.088;5.088;2023-05-07T02:40:42;3.40;;;3.10;;
15063;SDS011;7631;52.088;5.088;2023-05-07T02:43:09;4.17;;;3.77;;
15063;SDS011;7631;52.088;5.088;2023-05-07T02:45:34;3.40;;;3.10;;
15063;SDS011;7631;52.088;5.088;2023-05-07T02:47:59;3.53;;;3.23;;
15063;SDS011;7631;52.088;5.088;2023-05-07T02:50:25;3.60;;;3.13;;
15063;SDS011;7631;52.088;5.088;2023-05-07T02:52:51;3.93;;;3.53;;
15063;SDS011;7631;52.088;5.088;2023-05-07T02:55:16;3.20;;;2.90;;
15063;SDS011;7631;52.088;5.088;2023-05-07T02:57:42;3.53;;;3.23;;
15063;SDS011;7631;52.088;5.088;2023-05-07T03:00:17;3.13;;;2.93;;
15063;SDS011;7631;52.088;5.088;2023-05-07T03:02:43;3.30;;;3.00;;
15063;SDS011;7631;52.088;5.088;2023-05-07T03:05:08;3.93;;;3.53;;
15063;SDS011;7631;52.088;5.088;2023-05-07T03:07:34;3.23;;;2.93;;
15063;SDS011;7631;52.088;5.088;2023-05-07T03:10:00;3.37;;;3.07;;
15063;SDS011;7631;52.088;5.088;2023-05-07T03:12:25;3.50;;;3.20;;
15063;SDS011;7631;52.088;5.088;2023-05-07T03:14:50;3.33;;;3.03;;
15063;SDS011;7631;52.088;5.088;2023-05-07T03:17:15;3.40;;;3.10;;
15063;SDS011;7631;52.088;5.088;2023-05-07T03:19:41;3.03;;;2.83;;
15063;SDS011;7631;52.088;5.088;2023-05-07T03:22:06;3.43;;;3.13;;
15063;SDS011;7631;52.088;5.088;2023-05-07T03:24:31;3.10;;;2.90;;
15063;SDS011;7631;52.088;5.088;2023-05-07T03:26:57;3.27;;;2.93;;
15063;SDS011;7631;52.088;5.088;2023-05-07T03:29:22;3.10;;;2.90;;
15063;SDS011;7631;52.088;5.088;2023-05-07T03:31:47;3.40;;;2.90;;
15063;SDS011;7631;52.088;5.088;2023-05-07T03:34:13;3.20;;;2.90;;
15063;SDS011;7631;52.088;5.088;2023-05-07T03:36:38;3.50;;;2.63;;
15063;SDS011;7631;52.088;5.088;2023-05-07T03:39:03;4.00;;;3.10;;
15063;SDS011;7631;52.088;5.088;2023-05-07T03:41:29;2.73;;;2.53;;
15063;SDS011;7631;52.088;5.088;2023-05-07T03:43:54;2.83;;;2.53;;
15063;SDS011;7631;52.088;5.088;2023-05-07T03:46:19;3.07;;;2.77;;
15063;SDS011;7631;52.088;5.088;2023-05-07T03:48:45;2.70;;;2.50;;
15063;SDS011;7631;52.088;5.088;2023-05-07T03:51:10;3.03;;;2.73;;
15063;SDS011;7631;52.088;5.088;2023-05-07T03:53:35;3.10;;;2.80;;
15063;SDS011;7631;52.088;5.088;2023-05-07T03:56:00;2.77;;;2.57;;
15063;SDS011;7631;52.088;5.088;2023-05-07T03:58:26;2.50;;;2.30;;
15063;SDS011;7631;52.088;5.088;2023-05-07T04:00:51;2.60;;;2.40;;
15063;SDS011;7631;52.088;5.088;2023-05-07T04:03:16;3.37;;;3.07;;
15063;SDS011;7631;52.088;5.088;2023-05-07T04:05:41;3.50;;;3.20;;
15063;SDS011;7631;52.088;5.088;2023-05-07T04:08:07;2.90;;;2.60;;
15063;SDS011;7631;52.088;5.088;2023-05-07T04:10:32;3.40;;;3.10;;
15063;SDS011;7631;52.088;5.088;2023-05-07T04:12:57;3.73;;;3.40;;
15063;SDS011;7631;52.088;5.088;2023-05-07T04:15:23;3.07;;;2.87;;
15063;SDS011;7631;52.088;5.088;2023-05-07T04:17:48;3.43;;;3.13;;
15063;SDS011;7631;52.088;5.088;2023-05-07T04:20:16;3.57;;;2.93;;
15063;SDS011;7631;52.088;5.088;2023-05-07T04:22:42;3.20;;;2.90;;
15063;SDS011;7631;52.088;5.088;2023-05-07T04:25:08;3.50;;;3.00;;
15063;SDS011;7631;52.088;5.088;2023-05-07T04:27:34;3.20;;;2.90;;
15063;SDS011;7631;52.088;5.088;2023-05-07T04:29:59;3.23;;;2.93;;
15063;SDS011;7631;52.088;5.088;2023-05-07T04:32:25;3.37;;;3.03;;
15063;SDS011;7631;52.088;5.088;2023-05-07T04:34:51;3.67;;;3.37;;
15063;SDS011;7631;52.088;5.088;2023-05-07T04:37:16;3.50;;;3.03;;
15063;SDS011;7631;52.088;5.088;2023-05-07T04:39:42;3.20;;;2.90;;
15063;SDS011;7631;52.088;5.088;2023-05-07T04:42:07;3.40;;;3.10;;
15063;SDS011;7631;52.088;5.088;2023-05-07T04:44:34;3.33;;;3.03;;
15063;SDS011;7631;52.088;5.088;2023-05-07T04:46:59;3.40;;;3.10;;
15063;SDS011;7631;52.088;5.088;2023-05-07T04:49:24;3.60;;;3.30;;
15063;SDS011;7631;52.088;5.088;2023-05-07T04:51:50;3.80;;;3.50;;
15063;SDS011;7631;52.088;5.088;2023-05-07T04:54:15;3.60;;;3.30;;
15063;SDS011;7631;52.088;5.088;2023-05-07T04:56:40;3.33;;;3.10;;
15063;SDS011;7631;52.088;5.088;2023-05-07T04:59:05;3.43;;;3.00;;
15063;SDS011;7631;52.088;5.088;2023-05-07T05:01:31;3.30;;;3.00;;
15063;SDS011;7631;52.088;5.088;2023-05-07T05:03:56;3.40;;;3.10;;
15063;SDS011;7631;52.088;5.088;2023-05-07T05:06:21;3.10;;;2.80;;
15063;SDS011;7631;52.088;5.088;2023-05-07T05:08:47;3.60;;;3.30;;
15063;SDS011;7631;52.088;5.088;2023-05-07T05:11:12;3.40;;;3.10;;
15063;SDS011;7631;52.088;5.088;2023-05-07T05:13:37;3.37;;;3.07;;
15063;SDS011;7631;52.088;5.088;2023-05-07T05:16:02;3.90;;;3.40;;
15063;SDS011;7631;52.088;5.088;2023-05-07T05:18:28;3.27;;;2.97;;
15063;SDS011;7631;52.088;5.088;2023-05-07T05:20:53;3.97;;;3.00;;
15063;SDS011;7631;52.088;5.088;2023-05-07T05:23:18;3.20;;;2.90;;
15063;SDS011;7631;52.088;5.088;2023-05-07T05:25:43;3.50;;;3.20;;
15063;SDS011;7631;52.088;5.088;2023-05-07T05:28:09;3.30;;;3.00;;
15063;SDS011;7631;52.088;5.088;2023-05-07T05:30:34;3.10;;;2.90;;
15063;SDS011;7631;52.088;5.088;2023-05-07T05:33:00;3.30;;;3.00;;
15063;SDS011;7631;52.088;5.088;2023-05-07T05:35:25;3.27;;;2.97;;
15063;SDS011;7631;52.088;5.088;2023-05-07T05:37:50;3.10;;;2.80;;
15063;SDS011;7631;52.088;5.088;2023-05-07T05:40:16;3.67;;;3.37;;
15063;SDS011;7631;52.088;5.088;2023-05-07T05:42:41;3.47;;;3.17;;
15063;SDS011;7631;52.088;5.088;2023-05-07T05:45:07;3.50;;;3.20;;
15063;SDS011;7631;52.088;5.088;2023-05-07T05:47:33;3.70;;;3.40;;
15063;SDS011;7631;52.088;5.088;2023-05-07T05:49:58;3.60;;;3.30;;
15063;SDS011;7631;52.088;5.088;2023-05-07T05:52:23;4.00;;;3.67;;
15063;SDS011;7631;52.088;5.088;2023-05-07T05:54:49;2.97;;;2.77;;
15063;SDS011;7631;52.088;5.088;2023-05-07T05:57:14;3.67;;;3.37;;
15063;SDS011;7631;52.088;5.088;2023-05-07T05:59:39;3.10;;;2.90;;
15063;SDS011;7631;52.088;5.088;2023-05-07T06:02:05;3.53;;;3.23;;
15063;SDS011;7631;52.088;5.088;2023-05-07T06:04:31;3.50;;;3.20;;
15063;SDS011;7631;52.088;5.088;2023-05-07T06:06:56;3.17;;;2.93;;
15063;SDS011;7631;52.088;5.088;2023-05-07T06:09:21;3.60;;;3.10;;
15063;SDS011;7631;52.088;5.088;2023-05-07T06:11:47;3.60;;;3.30;;
15063;SDS011;7631;52.088;5.088;2023-05-07T06:14:12;3.20;;;2.90;;
15063;SDS011;7631;52.088;5.088;2023-05-07T06:16:37;3.73;;;3.43;;
15063;SDS011;7631;52.088;5.088;2023-05-07T06:19:03;3.30;;;3.00;;
15063;SDS011;7631;52.088;5.088;2023-05-07T06:21:28;4.07;;;3.57;;
15063;SDS011;7631;52.088;5.088;2023-05-07T06:23:53;3.17;;;2.87;;
15063;SDS011;7631;52.088;5.088;2023-05-07T06:26:19;4.20;;;3.80;;
15063;SDS011;7631;52.088;5.088;2023-05-07T06:28:45;3.40;;;3.13;;
15063;SDS011;7631;52.088;5.088;2023-05-07T06:31:11;3.30;;;3.00;;
15063;SDS011;7631;52.088;5.088;2023-05-07T06:33:36;4.13;;;3.67;;
15063;SDS011;7631;52.088;5.088;2023-05-07T06:36:01;3.60;;;3.30;;
15063;SDS011;7631;52.088;5.088;2023-05-07T06:38:26;3.30;;;3.00;;
15063;SDS011;7631;52.088;5.088;2023-05-07T06:40:51;3.87;;;3.43;;
15063;SDS011;7631;52.088;5.088;2023-05-07T06:43:19;3.70;;;3.30;;
15063;SDS011;7631;52.088;5.088;2023-05-07T06:45:44;3.77;;;3.33;;
15063;SDS011;7631;52.088;5.088;2023-05-07T06:48:09;3.73;;;3.30;;
15063;SDS011;7631;52.088;5.088;2023-05-07T06:50:34;4.10;;;3.70;;
15063;SDS011;7631;52.088;5.088;2023-05-07T06:52:59;4.00;;;3.53;;
15063;SDS011;7631;52.088;5.088;2023-05-07T06:55:25;3.40;;;3.10;;
15063;SDS011;7631;52.088;5.088;2023-05-07T06:57:50;3.63;;;3.33;;
15063;SDS011;7631;52.088;5.088;2023-05-07T07:00:15;4.10;;;3.30;;
15063;SDS011;7631;52.088;5.088;2023-05-07T07:02:41;3.83;;;3.53;;
15063;SDS011;7631;52.088;5.088;2023-05-07T07:05:06;3.60;;;3.17;;
15063;SDS011;7631;52.088;5.088;2023-05-07T07:07:32;4.20;;;3.80;;
15063;SDS011;7631;52.088;5.088;2023-05-07T07:09:57;3.37;;;3.07;;
15063;SDS011;7631;52.088;5.088;2023-05-07T07:12:22;4.00;;;3.70;;
15063;SDS011;7631;52.088;5.088;2023-05-07T07:14:49;3.63;;;3.33;;
15063;SDS011;7631;52.088;5.088;2023-05-07T07:17:15;4.03;;;3.63;;
15063;SDS011;7631;52.088;5.088;2023-05-07T07:19:40;3.73;;;3.37;;
15063;SDS011;7631;52.088;5.088;2023-05-07T07:22:05;3.73;;;3.43;;
15063;SDS011;7631;52.088;5.088;2023-05-07T07:24:30;3.90;;;3.60;;
15063;SDS011;7631;52.088;5.088;2023-05-07T07:26:55;3.63;;;3.33;;
15063;SDS011;7631;52.088;5.088;2023-05-07T07:29:21;3.87;;;3.50;;
15063;SDS011;7631;52.088;5.088;2023-05-07T07:31:47;3.73;;;3.43;;
15063;SDS011;7631;52.088;5.088;2023-05-07T07:34:12;3.50;;;3.20;;
15063;SDS011;7631;52.088;5.088;2023-05-07T07:36:37;3.93;;;3.57;;
15063;SDS011;7631;52.088;5.088;2023-05-07T07:39:03;4.07;;;3.70;;
15063;SDS011;7631;52.088;5.088;2023-05-07T07:41:28;3.47;;;3.17;;
15063;SDS011;7631;52.088;5.088;2023-05-07T07:43:53;3.87;;;3.50;;
15063;SDS011;7631;52.088;5.088;2023-05-07T07:46:18;3.87;;;3.40;;
15063;SDS011;7631;52.088;5.088;2023-05-07T07:48:43;3.77;;;3.47;;
15063;SDS011;7631;52.088;5.088;2023-05-07T07:51:09;3.97;;;3.10;;
15063;SDS011;7631;52.088;5.088;2023-05-07T07:53:34;3.37;;;3.07;;
15063;SDS011;7631;52.088;5.088;2023-05-07T07:55:59;3.40;;;3.10;;
15063;SDS011;7631;52.088;5.088;2023-05-07T07:58:25;3.60;;;3.13;;
15063;SDS011;7631;52.088;5.088;2023-05-07T08:00:50;4.10;;;3.80;;
15063;SDS011;7631;52.088;5.088;2023-05-07T08:03:16;4.10;;;3.70;;
15063;SDS011;7631;52.088;5.088;2023-05-07T08:05:41;3.70;;;3.40;;
15063;SDS011;7631;52.088;5.088;2023-05-07T08:08:07;3.63;;;3.33;;
15063;SDS011;7631;52.088;5.088;2023-05-07T08:10:32;4.43;;;3.93;;
15063;SDS011;7631;52.088;5.088;2023-05-07T08:12:59;3.60;;;3.30;;
15063;SDS011;7631;52.088;5.088;2023-05-07T08:15:25;3.67;;;3.37;;
15063;SDS011;7631;52.088;5.088;2023-05-07T08:17:50;3.67;;;3.37;;
15063;SDS011;7631;52.088;5.088;2023-05-07T08:20:15;3.73;;;3.43;;
15063;SDS011;7631;52.088;5.088;2023-05-07T08:22:40;3.80;;;3.40;;
15063;SDS011;7631;52.088;5.088;2023-05-07T08:25:06;3.70;;;3.40;;
15063;SDS011;7631;52.088;5.088;2023-05-07T08:27:31;3.60;;;3.30;;
15063;SDS011;7631;52.088;5.088;2023-05-07T08:29:56;3.57;;;3.27;;
15063;SDS011;7631;52.088;5.088;2023-05-07T08:32:21;3.77;;;3.33;;
15063;SDS011;7631;52.088;5.088;2023-05-07T08:34:47;3.77;;;3.47;;
15063;SDS011;7631;52.088;5.088;2023-05-07T08:37:12;4.37;;;3.97;;
15063;SDS011;7631;52.088;5.088;2023-05-07T08:39:37;3.73;;;3.43;;
15063;SDS011;7631;52.088;5.088;2023-05-07T08:42:03;4.07;;;3.70;;
15063;SDS011;7631;52.088;5.088;2023-05-07T08:44:29;3.97;;;3.53;;
15063;SDS011;7631;52.088;5.088;2023-05-07T08:46:57;3.60;;;3.30;;
15063;SDS011;7631;52.088;5.088;2023-05-07T08:49:23;4.47;;;3.70;;
15063;SDS011;7631;52.088;5.088;2023-05-07T08:51:48;3.67;;;3.37;;
15063;SDS011;7631;52.088;5.088;2023-05-07T08:54:15;4.10;;;3.53;;
15063;SDS011;7631;52.088;5.088;2023-05-07T08:56:41;7.17;;;6.47;;
15063;SDS011;7631;52.088;5.088;2023-05-07T08:59:06;10.67;;;7.80;;
15063;SDS011;7631;52.088;5.088;2023-05-07T09:01:31;9.90;;;8.90;;
15063;SDS011;7631;52.088;5.088;2023-05-07T09:03:56;9.60;;;8.30;;
15063;SDS011;7631;52.088;5.088;2023-05-07T09:06:22;8.80;;;8.00;;
15063;SDS011;7631;52.088;5.088;2023-05-07T09:08:51;10.37;;;9.20;;
15063;SDS011;7631;52.088;5.088;2023-05-07T09:11:19;9.00;;;8.20;;
15063;SDS011;7631;52.088;5.088;2023-05-07T09:13:44;9.93;;;8.93;;
15063;SDS011;7631;52.088;5.088;2023-05-07T09:16:10;10.10;;;9.10;;
15063;SDS011;7631;52.088;5.088;2023-05-07T09:18:40;9.40;;;8.50;;
15063;SDS011;7631;52.088;5.088;2023-05-07T09:21:05;9.83;;;8.83;;
15063;SDS011;7631;52.088;5.088;2023-05-07T09:23:34;9.67;;;8.63;;
15063;SDS011;7631;52.088;5.088;2023-05-07T09:26:00;10.80;;;9.43;;
15063;SDS011;7631;52.088;5.088;2023-05-07T09:28:26;10.50;;;9.40;;
15063;SDS011;7631;52.088;5.088;2023-05-07T09:30:51;11.33;;;9.43;;
15063;SDS011;7631;52.088;5.088;2023-05-07T09:33:16;10.47;;;9.47;;
15063;SDS011;7631;52.088;5.088;2023-05-07T09:35:42;9.93;;;9.03;;
15063;SDS011;7631;52.088;5.088;2023-05-07T09:38:07;8.73;;;7.90;;
15063;SDS011;7631;52.088;5.088;2023-05-07T09:40:32;10.70;;;9.53;;
15063;SDS011;7631;52.088;5.088;2023-05-07T09:43:08;10.13;;;9.13;;
15063;SDS011;7631;52.088;5.088;2023-05-07T09:45:33;10.80;;;9.63;;
15063;SDS011;7631;52.088;5.088;2023-05-07T09:47:59;9.73;;;8.70;;
15063;SDS011;7631;52.088;5.088;2023-05-07T09:50:29;9.47;;;8.53;;
15063;SDS011;7631;52.088;5.088;2023-05-07T09:52:56;9.70;;;8.77;;
15063;SDS011;7631;52.088;5.088;2023-05-07T09:55:21;10.47;;;9.37;;
15063;SDS011;7631;52.088;5.088;2023-05-07T09:57:48;9.90;;;9.00;;
15063;SDS011;7631;52.088;5.088;2023-05-07T10:00:15;10.50;;;8.77;;
15063;SDS011;7631;52.088;5.088;2023-05-07T10:02:40;11.27;;;9.45;;
15063;SDS011;7631;52.088;5.088;2023-05-07T10:05:12;8.85;;;8.05;;
15063;SDS011;7631;52.088;5.088;2023-05-07T10:07:37;8.57;;;7.78;;
15063;SDS011;7631;52.088;5.088;2023-05-07T10:10:03;8.73;;;7.93;;
15063;SDS011;7631;52.088;5.088;2023-05-07T10:12:29;8.10;;;7.30;;
15063;SDS011;7631;52.088;5.088;2023-05-07T10:14:55;10.13;;;8.05;;
15063;SDS011;7631;52.088;5.088;2023-05-07T10:17:21;9.07;;;7.72;;
15063;SDS011;7631;52.088;5.088;2023-05-07T10:19:48;8.52;;;7.43;;
15063;SDS011;7631;52.088;5.088;2023-05-07T10:22:14;7.88;;;7.07;;
15063;SDS011;7631;52.088;5.088;2023-05-07T10:24:40;8.07;;;7.25;;
15063;SDS011;7631;52.088;5.088;2023-05-07T10:27:11;7.25;;;6.55;;
15063;SDS011;7631;52.088;5.088;2023-05-07T10:29:53;7.32;;;6.63;;
15063;SDS011;7631;52.088;5.088;2023-05-07T10:32:35;6.70;;;6.10;;
15063;SDS011;7631;52.088;5.088;2023-05-07T10:35:02;6.30;;;5.55;;
15063;SDS011;7631;52.088;5.088;2023-05-07T10:37:28;6.32;;;5.53;;
15063;SDS011;7631;52.088;5.088;2023-05-07T10:39:54;5.97;;;5.43;;
15063;SDS011;7631;52.088;5.088;2023-05-07T10:42:19;5.75;;;5.15;;
15063;SDS011;7631;52.088;5.088;2023-05-07T10:44:44;5.53;;;4.18;;
15063;SDS011;7631;52.088;5.088;2023-05-07T10:47:10;4.43;;;4.03;;
15063;SDS011;7631;52.088;5.088;2023-05-07T10:49:38;7.22;;;4.47;;
15063;SDS011;7631;52.088;5.088;2023-05-07T10:52:22;5.45;;;4.25;;
15063;SDS011;7631;52.088;5.088;2023-05-07T10:57:42;4.40;;;4.00;;
15063;SDS011;7631;52.088;5.088;2023-05-07T11:05:25;4.65;;;4.15;;
15063;SDS011;7631;52.088;5.088;2023-05-07T11:07:54;5.60;;;4.85;;
15063;SDS011;7631;52.088;5.088;2023-05-07T11:10:20;6.53;;;4.45;;
15063;SDS011;7631;52.088;5.088;2023-05-07T11:12:46;5.38;;;4.57;;
15063;SDS011;7631;52.088;5.088;2023-05-07T11:15:12;5.50;;;4.72;;
15063;SDS011;7631;52.088;5.088;2023-05-07T11:17:53;7.13;;;4.35;;
15063;SDS011;7631;52.088;5.088;2023-05-07T11:20:19;6.85;;;4.40;;
15063;SDS011;7631;52.088;5.088;2023-05-07T11:22:45;5.00;;;4.50;;
15063;SDS011;7631;52.088;5.088;2023-05-07T11:25:10;5.45;;;4.10;;
15063;SDS011;7631;52.088;5.088;2023-05-07T11:27:42;4.00;;;3.60;;
15063;SDS011;7631;52.088;5.088;2023-05-07T11:30:07;5.90;;;3.90;;
15063;SDS011;7631;52.088;5.088;2023-05-07T11:32:33;4.28;;;3.85;;
15063;SDS011;7631;52.088;5.088;2023-05-07T11:34:59;4.50;;;3.47;;
15063;SDS011;7631;52.088;5.088;2023-05-07T11:37:25;5.80;;;3.40;;
15063;SDS011;7631;52.088;5.088;2023-05-07T11:39:52;4.00;;;3.20;;
15063;SDS011;7631;52.088;5.088;2023-05-07T11:42:30;4.18;;;3.22;;
15063;SDS011;7631;52.088;5.088;2023-05-07T11:44:56;3.17;;;2.88;;
15063;SDS011;7631;52.088;5.088;2023-05-07T11:47:21;4.03;;;3.38;;
15063;SDS011;7631;52.088;5.088;2023-05-07T11:49:53;3.65;;;3.28;;
15063;SDS011;7631;52.088;5.088;2023-05-07T11:52:20;3.20;;;2.78;;
15063;SDS011;7631;52.088;5.088;2023-05-07T11:54:55;3.38;;;2.70;;
15063;SDS011;7631;52.088;5.088;2023-05-07T11:57:22;3.45;;;2.78;;
15063;SDS011;7631;52.088;5.088;2023-05-07T11:59:47;3.55;;;2.88;;
15063;SDS011;7631;52.088;5.088;2023-05-07T12:02:13;3.97;;;2.75;;
15063;SDS011;7631;52.088;5.088;2023-05-07T12:04:39;2.60;;;2.40;;
15063;SDS011;7631;52.088;5.088;2023-05-07T12:07:05;2.65;;;2.40;;
15063;SDS011;7631;52.088;5.088;2023-05-07T12:09:32;3.03;;;2.53;;
15063;SDS011;7631;52.088;5.088;2023-05-07T12:11:57;2.42;;;2.22;;
15063;SDS011;7631;52.088;5.088;2023-05-07T12:14:27;2.70;;;2.10;;
15063;SDS011;7631;52.088;5.088;2023-05-07T12:16:53;2.60;;;2.40;;
15063;SDS011;7631;52.088;5.088;2023-05-07T12:19:19;3.35;;;2.40;;
15063;SDS011;7631;52.088;5.088;2023-05-07T12:21:45;2.58;;;2.00;;
15063;SDS011;7631;52.088;5.088;2023-05-07T12:24:10;3.30;;;2.28;;
15063;SDS011;7631;52.088;5.088;2023-05-07T12:26:38;2.95;;;2.17;;
15063;SDS011;7631;52.088;5.088;2023-05-07T12:29:05;3.08;;;2.30;;
15063;SDS011;7631;52.088;5.088;2023-05-07T12:31:30;1.98;;;1.70;;
15063;SDS011;7631;52.088;5.088;2023-05-07T12:33:56;2.05;;;1.65;;
15063;SDS011;7631;52.088;5.088;2023-05-07T12:36:21;2.60;;;1.90;;
15063;SDS011;7631;52.088;5.088;2023-05-07T12:38:46;2.45;;;2.00;;
15063;SDS011;7631;52.088;5.088;2023-05-07T12:41:14;2.03;;;1.77;;
15063;SDS011;7631;52.088;5.088;2023-05-07T12:43:42;2.95;;;2.03;;
15063;SDS011;7631;52.088;5.088;2023-05-07T12:46:08;1.90;;;1.67;;
15063;SDS011;7631;52.088;5.088;2023-05-07T12:48:35;3.80;;;1.90;;
15063;SDS011;7631;52.088;5.088;2023-05-07T12:51:01;1.90;;;1.80;;
15063;SDS011;7631;52.088;5.088;2023-05-07T12:53:27;2.83;;;1.80;;
15063;SDS011;7631;52.088;5.088;2023-05-07T12:55:53;2.28;;;1.90;;
15063;SDS011;7631;52.088;5.088;2023-05-07T12:58:19;2.08;;;1.55;;
15063;SDS011;7631;52.088;5.088;2023-05-07T13:00:45;3.53;;;2.42;;
15063;SDS011;7631;52.088;5.088;2023-05-07T13:03:12;4.32;;;4.00;;
15063;SDS011;7631;52.088;5.088;2023-05-07T13:05:45;5.55;;;4.30;;
15063;SDS011;7631;52.088;5.088;2023-05-07T13:08:23;18.90;;;10.75;;
15063;SDS011;7631;52.088;5.088;2023-05-07T13:11:00;19.63;;;11.63;;
15063;SDS011;7631;52.088;5.088;2023-05-07T13:13:51;17.02;;;9.43;;
15063;SDS011;7631;52.088;5.088;2023-05-07T13:16:16;23.60;;;13.10;;
15063;SDS011;7631;52.088;5.088;2023-05-07T13:18:42;40.05;;;19.02;;
15063;SDS011;7631;52.088;5.088;2023-05-07T13:21:16;36.65;;;18.65;;
15063;SDS011;7631;52.088;5.088;2023-05-07T13:23:41;28.15;;;14.48;;
15063;SDS011;7631;52.088;5.088;2023-05-07T13:26:08;31.48;;;16.48;;
15063;SDS011;7631;52.088;5.088;2023-05-07T13:28:33;41.65;;;20.50;;
15063;SDS011;7631;52.088;5.088;2023-05-07T13:30:58;56.08;;;26.85;;
15063;SDS011;7631;52.088;5.088;2023-05-07T13:33:24;43.83;;;22.50;;
15063;SDS011;7631;52.088;5.088;2023-05-07T13:35:49;30.33;;;17.83;;
15063;SDS011;7631;52.088;5.088;2023-05-07T13:38:14;40.80;;;20.25;;
15063;SDS011;7631;52.088;5.088;2023-05-07T13:40:40;50.20;;;23.60;;
15063;SDS011;7631;52.088;5.088;2023-05-07T13:43:06;35.13;;;16.80;;
15063;SDS011;7631;52.088;5.088;2023-05-07T13:45:31;55.17;;;24.27;;
15063;SDS011;7631;52.088;5.088;2023-05-07T13:47:57;97.07;;;44.67;;
15063;SDS011;7631;52.088;5.088;2023-05-07T13:50:23;114.35;;;49.55;;
15063;SDS011;7631;52.088;5.088;2023-05-07T13:52:49;122.97;;;53.30;;
15063;SDS011;7631;52.088;5.088;2023-05-07T13:55:18;101.47;;;49.55;;
15063;SDS011;7631;52.088;5.088;2023-05-07T13:57:54;113.70;;;50.22;;
15063;SDS011;7631;52.088;5.088;2023-05-07T14:00:26;67.50;;;34.50;;
15063;SDS011;7631;52.088;5.088;2023-05-07T14:03:03;52.40;;;24.63;;
15063;SDS011;7631;52.088;5.088;2023-05-07T14:05:29;29.08;;;15.43;;
15063;SDS011;7631;52.088;5.088;2023-05-07T14:07:55;25.05;;;12.27;;
15063;SDS011;7631;52.088;5.088;2023-05-07T14:10:21;19.48;;;9.80;;
15063;SDS011;7631;52.088;5.088;2023-05-07T14:12:46;17.60;;;9.85;;
15063;SDS011;7631;52.088;5.088;2023-05-07T14:15:12;16.08;;;9.80;;
15063;SDS011;7631;52.088;5.088;2023-05-07T14:17:37;19.00;;;10.32;;
15063;SDS011;7631;52.088;5.088;2023-05-07T14:20:02;18.77;;;10.23;;
15063;SDS011;7631;52.088;5.088;2023-05-07T14:22:28;16.50;;;9.20;;
15063;SDS011;7631;52.088;5.088;2023-05-07T14:24:53;18.00;;;9.65;;
15063;SDS011;7631;52.088;5.088;2023-05-07T14:27:18;15.52;;;9.50;;
15063;SDS011;7631;52.088;5.088;2023-05-07T14:29:43;13.65;;;8.95;;
15063;SDS011;7631;52.088;5.088;2023-05-07T14:32:10;14.07;;;8.68;;
15063;SDS011;7631;52.088;5.088;2023-05-07T14:34:35;17.13;;;9.50;;
15063;SDS011;7631;52.088;5.088;2023-05-07T14:37:00;12.93;;;9.07;;
15063;SDS011;7631;52.088;5.088;2023-05-07T14:39:26;16.95;;;8.88;;
15063;SDS011;7631;52.088;5.088;2023-05-07T14:41:52;13.15;;;7.78;;
15063;SDS011;7631;52.088;5.088;2023-05-07T14:44:19;14.13;;;8.70;;
15063;SDS011;7631;52.088;5.088;2023-05-07T14:46:44;14.23;;;7.63;;
15063;SDS011;7631;52.088;5.088;2023-05-07T14:49:09;11.15;;;6.88;;
15063;SDS011;7631;52.088;5.088;2023-05-07T14:51:41;11.85;;;7.53;;
15063;SDS011;7631;52.088;5.088;2023-05-07T14:54:07;13.30;;;6.80;;
15063;SDS011;7631;52.088;5.088;2023-05-07T14:56:32;11.43;;;7.90;;
15063;SDS011;7631;52.088;5.088;2023-05-07T14:58:58;9.50;;;6.63;;